aviador You're here:

KDRT Decoded Metar

DEL RIO in TX, USA
Report Time2018-06-24 08:53:00
UTC Time2018-06-24 09:26:10
Flight Rules vfr VFR
Wind110° at 16 Gusting to 25 kt
W.Decomp.*RWY 13: 14.1 kt HW 7.5 kt LCW
W.Rank110° ranks 2
Current wind is above 110° avg. (8.0)
Visibility9999 m
Phenomena:N/A
Clouds:Scattered 032 Hf
Expected CloudBase > 2,400 ft AGL from Temp-Dew spread
CeilingNone
Temp29°C (ISA +16)
Dew Point23°C (70% RH)
Heat Index32.7°C
AAT28.5°C
QNH1008 hPa
Density Alt3,409 ft
Elevation1,027 ft
Report Wrong Elevation
Raw Report
KDRT 240853Z AUTO 11016G25KT 10SM SCT032 29/23 A2976 RMK AO2 PK
WND 12026/0834 SLP056 T02890228 50007=

Extra information for KDRT:More info

Metar Taf Metar & Taf Last 4 Metars F.Rules Stats Wind Profile Meteogram Temp Stats Airport Information Weather charts Add Link Nearby VenuesMetar ALERT Operation Metar Decoded Social comments

AIRNAV info for KDRT